createdAt,value
2022-08-05T00:01:56.811Z,100516.38
2022-08-05T00:04:09.574Z,100509.75
2022-08-05T00:06:29.034Z,100527.06
2022-08-05T00:08:36.158Z,100511.06
2022-08-05T00:10:37.902Z,100513.78
2022-08-05T00:12:55.765Z,100507.22
2022-08-05T00:14:58.006Z,100510.69
2022-08-05T00:17:01.840Z,100503.19
2022-08-05T00:19:04.653Z,100505.09
2022-08-05T00:21:08.414Z,100497.94
2022-08-05T00:23:12.905Z,100504.88
2022-08-05T00:25:14.780Z,100511.44
2022-08-05T00:27:18.001Z,100504.59
2022-08-05T00:29:22.384Z,100502.16
2022-08-05T00:31:53.884Z,100502.81
2022-08-05T00:34:55.585Z,100511.06
2022-08-05T00:36:16.120Z,100503.44
2022-08-05T00:38:33.766Z,100504.13
2022-08-05T00:40:51.969Z,100504.50
2022-08-05T00:42:55.536Z,100512.81
2022-08-05T00:44:57.048Z,100504.91
2022-08-05T00:47:04.257Z,100507.28
2022-08-05T00:49:07.839Z,100506.66
2022-08-05T00:51:50.682Z,100506.72
2022-08-05T00:54:00.002Z,100513.59
2022-08-05T00:55:54.095Z,100523.34
2022-08-05T00:57:58.977Z,100534.78
2022-08-05T01:00:02.073Z,100538.81
2022-08-05T01:02:03.813Z,100533.28
2022-08-05T01:04:13.802Z,100526.75
2022-08-05T01:06:16.082Z,100535.13
2022-08-05T01:08:41.838Z,100535.56
2022-08-05T01:10:52.332Z,100533.09
2022-08-05T01:13:12.881Z,100531.31
2022-08-05T01:15:35.656Z,100523.34
2022-08-05T01:17:45.536Z,100534.06
2022-08-05T01:20:05.852Z,100536.97
2022-08-05T01:22:24.114Z,100551.31
2022-08-05T01:24:50.814Z,100543.97
2022-08-05T01:27:19.174Z,100534.13
2022-08-05T01:29:30.702Z,100541.63
2022-08-05T01:31:44.917Z,100539.75
2022-08-05T01:33:53.489Z,100534.31
2022-08-05T01:35:59.175Z,100550.34
2022-08-05T01:38:02.710Z,100543.00
2022-08-05T01:40:07.253Z,100534.50
2022-08-05T01:42:13.775Z,100528.03
2022-08-05T01:44:17.987Z,100516.91
2022-08-05T01:46:42.099Z,100541.34
2022-08-05T01:48:49.729Z,100536.75
2022-08-05T01:50:53.786Z,100521.91
2022-08-05T01:52:59.804Z,100531.00
2022-08-05T01:55:05.468Z,100543.44
2022-08-05T01:58:09.489Z,100528.09
2022-08-05T01:59:34.872Z,100525.22
2022-08-05T02:01:40.255Z,100539.22
2022-08-05T02:03:46.401Z,100543.81
2022-08-05T02:05:49.089Z,100529.66
2022-08-05T02:07:57.841Z,100520.13
2022-08-05T02:10:03.862Z,100521.03
2022-08-05T02:12:10.168Z,100519.34
2022-08-05T02:14:15.569Z,100520.84
2022-08-05T02:16:22.329Z,100517.81
2022-08-05T02:18:35.061Z,100512.88
2022-08-05T02:20:44.136Z,100507.59
2022-08-05T02:22:55.703Z,100516.94
2022-08-05T02:25:02.565Z,100517.97
2022-08-05T02:27:09.860Z,100518.66
2022-08-05T02:29:21.618Z,100531.53
2022-08-05T02:31:35.007Z,100522.91
2022-08-05T02:33:42.068Z,100531.53
2022-08-05T02:35:55.862Z,100529.53
2022-08-05T02:38:02.295Z,100532.22
2022-08-05T02:40:06.663Z,100530.03
2022-08-05T02:42:11.827Z,100522.75
2022-08-05T02:44:30.116Z,100522.72
2022-08-05T02:46:31.901Z,100517.97
2022-08-05T02:48:35.297Z,100518.81
2022-08-05T02:50:38.739Z,100524.25
2022-08-05T02:52:46.647Z,100523.75
2022-08-05T02:54:50.675Z,100524.44
2022-08-05T02:56:54.779Z,100517.66
2022-08-05T02:58:57.622Z,100520.19
2022-08-05T03:01:02.231Z,100515.41
2022-08-05T03:03:10.099Z,100520.34
2022-08-05T03:05:13.603Z,100519.16
2022-08-05T03:08:00.115Z,100513.88
2022-08-05T03:09:43.897Z,100510.53
2022-08-05T03:11:57.869Z,100513.56
2022-08-05T03:14:03.036Z,100515.94
2022-08-05T03:16:05.725Z,100514.22
2022-08-05T03:18:10.959Z,100514.91
2022-08-05T03:20:13.702Z,100508.44
2022-08-05T03:22:18.881Z,100493.13
2022-08-05T03:24:29.429Z,100491.75
2022-08-05T03:26:32.772Z,100495.44
2022-08-05T03:28:34.805Z,100491.75
2022-08-05T03:30:38.322Z,100499.19
2022-08-05T03:32:43.602Z,100485.59
2022-08-05T03:34:51.330Z,100496.78
2022-08-05T03:36:53.676Z,100495.44
2022-08-05T03:38:57.388Z,100502.25
2022-08-05T03:40:59.224Z,100516.22
2022-08-05T03:43:01.429Z,100513.63
2022-08-05T03:45:21.857Z,100518.06
2022-08-05T03:47:24.974Z,100515.00
2022-08-05T03:49:31.182Z,100512.13
2022-08-05T03:52:36.505Z,100517.75
2022-08-05T03:56:01.492Z,100510.91
2022-08-05T03:56:50.755Z,100517.06
2022-08-05T03:58:59.807Z,100503.97
2022-08-05T04:01:04.475Z,100516.72
2022-08-05T04:03:07.819Z,100522.34
2022-08-05T04:05:17.821Z,100521.88
2022-08-05T04:07:20.151Z,100530.88
2022-08-05T04:09:29.207Z,100529.88
2022-08-05T04:11:47.239Z,100531.56
2022-08-05T04:13:53.496Z,100516.28
2022-08-05T04:16:04.541Z,100525.09
2022-08-05T04:18:09.406Z,100505.75
2022-08-05T04:20:17.967Z,100514.91
2022-08-05T04:22:21.615Z,100506.06
2022-08-05T04:24:23.165Z,100501.44
2022-08-05T04:26:32.373Z,100505.88
2022-08-05T04:28:34.199Z,100514.22
2022-08-05T04:30:36.344Z,100516.75
2022-08-05T04:32:38.160Z,100519.47
2022-08-05T04:34:42.886Z,100521.19
2022-08-05T04:36:50.231Z,100532.53
2022-08-05T04:38:52.127Z,100525.91
2022-08-05T04:40:53.763Z,100537.25
2022-08-05T04:42:56.629Z,100545.06
2022-08-05T04:44:58.199Z,100549.47
2022-08-05T04:47:09.848Z,100554.13
2022-08-05T04:49:14.504Z,100548.53
2022-08-05T04:51:16.519Z,100538.66
2022-08-05T04:53:19.146Z,100547.47
2022-08-05T04:56:33.983Z,100548.06
2022-08-05T04:57:47.576Z,100546.00
2022-08-05T04:59:51.034Z,100544.41
2022-08-05T05:02:07.079Z,100543.66
2022-08-05T05:04:14.173Z,100541.25
2022-08-05T05:06:40.068Z,100544.19
2022-08-05T05:08:37.579Z,100546.94
2022-08-05T05:10:47.292Z,100547.19
2022-08-05T05:12:57.881Z,100548.91
2022-08-05T05:15:03.792Z,100555.50
2022-08-05T05:17:07.510Z,100552.28
2022-08-05T05:19:18.560Z,100549.53
2022-08-05T05:21:21.183Z,100563.53
2022-08-05T05:23:39.247Z,100557.50
2022-08-05T05:25:50.452Z,100559.94
2022-08-05T05:27:55.835Z,100568.50
2022-08-05T05:30:04.434Z,100579.13
2022-08-05T05:32:08.209Z,100573.38
2022-08-05T05:34:14.305Z,100601.63
2022-08-05T05:36:17.601Z,100610.09
2022-08-05T05:38:26.730Z,100621.66
2022-08-05T05:40:30.104Z,100620.44
2022-08-05T05:42:33.685Z,100609.44
2022-08-05T05:44:37.718Z,100598.00
2022-08-05T05:46:46.222Z,100588.75
2022-08-05T05:48:50.760Z,100599.38
2022-08-05T05:50:52.404Z,100598.06
2022-08-05T05:52:53.964Z,100603.59
2022-08-05T05:54:55.562Z,100612.06
2022-08-05T05:56:57.109Z,100615.91
2022-08-05T05:59:03.307Z,100639.47
2022-08-05T06:01:13.050Z,100657.03
2022-08-05T06:03:28.624Z,100676.97
2022-08-05T06:05:39.965Z,100665.03
2022-08-05T06:08:01.413Z,100661.28
2022-08-05T06:10:07.095Z,100657.63
2022-08-05T06:12:12.108Z,100670.72
2022-08-05T06:14:13.796Z,100673.25
2022-08-05T06:16:30.014Z,100686.06
2022-08-05T06:18:33.685Z,100701.53
2022-08-05T06:20:42.237Z,100699.84
2022-08-05T06:22:49.315Z,100709.63
2022-08-05T06:24:52.510Z,100710.88
2022-08-05T06:26:54.219Z,100721.28
2022-08-05T06:28:57.082Z,100717.75
2022-08-05T06:30:58.626Z,100703.78
2022-08-05T06:33:00.177Z,100691.25
2022-08-05T06:35:06.111Z,100682.91
2022-08-05T06:37:18.618Z,100697.31
2022-08-05T06:39:40.261Z,100683.31
2022-08-05T06:41:43.215Z,100677.38
2022-08-05T06:43:58.550Z,100677.81
2022-08-05T06:46:03.675Z,100677.06
2022-08-05T06:48:36.960Z,100680.66
2022-08-05T06:50:30.370Z,100679.22
2022-08-05T06:52:36.988Z,100677.53
2022-08-05T06:54:39.898Z,100685.53
2022-08-05T06:56:41.418Z,100682.84
2022-08-05T06:58:57.210Z,100674.34
2022-08-05T07:00:59.262Z,100685.28
2022-08-05T07:03:00.861Z,100678.75
2022-08-05T07:05:02.393Z,100683.09
2022-08-05T07:07:07.877Z,100689.53
2022-08-05T07:09:11.153Z,100695.22
2022-08-05T07:11:14.999Z,100688.69
2022-08-05T07:13:17.504Z,100692.31
2022-08-05T07:16:00.920Z,100691.47
2022-08-05T07:18:07.464Z,100702.59
2022-08-05T07:20:32.084Z,100718.34
2022-08-05T07:22:33.365Z,100725.22
2022-08-05T07:24:43.990Z,100742.25
2022-08-05T07:26:55.299Z,100741.63
2022-08-05T07:28:56.855Z,100735.00
2022-08-05T07:31:01.372Z,100718.25
2022-08-05T07:33:09.293Z,100720.38
2022-08-05T07:36:03.189Z,100725.34
2022-08-05T07:37:35.960Z,100735.84
2022-08-05T07:40:26.027Z,100726.88
2022-08-05T07:42:14.449Z,100733.44
2022-08-05T07:44:19.386Z,100737.53
2022-08-05T07:46:25.331Z,100721.81
2022-08-05T07:49:02.152Z,100733.06
2022-08-05T07:50:48.970Z,100738.13
2022-08-05T07:52:51.347Z,100732.88
2022-08-05T07:54:54.242Z,100720.88
2022-08-05T07:57:13.886Z,100709.63
2022-08-05T07:59:17.361Z,100715.06
2022-08-05T08:01:24.758Z,100715.72
2022-08-05T08:03:44.911Z,100721.31
2022-08-05T08:05:49.589Z,100727.47
2022-08-05T08:07:59.049Z,100710.84
2022-08-05T08:10:04.561Z,100715.97
2022-08-05T08:12:19.215Z,100714.66
2022-08-05T08:14:28.205Z,100719.44
2022-08-05T08:16:50.259Z,100726.22
2022-08-05T08:18:51.388Z,100712.94
2022-08-05T08:21:02.242Z,100712.31
2022-08-05T08:23:05.353Z,100694.56
2022-08-05T08:25:16.386Z,100671.81
2022-08-05T08:27:19.271Z,100666.38
2022-08-05T08:29:45.554Z,100680.28
2022-08-05T08:31:43.013Z,100702.94
2022-08-05T08:33:45.225Z,100719.59
2022-08-05T08:35:53.984Z,100723.34
2022-08-05T08:38:11.606Z,100744.47
2022-08-05T08:40:19.609Z,100760.53
2022-08-05T08:42:46.742Z,100766.63
2022-08-05T08:45:18.161Z,100759.66
2022-08-05T08:47:46.782Z,100747.91
2022-08-05T08:50:07.799Z,100724.06
2022-08-05T08:52:03.623Z,100733.63
2022-08-05T08:54:07.992Z,100756.47
2022-08-05T08:56:10.901Z,100764.34
2022-08-05T08:58:15.578Z,100767.44
2022-08-05T09:00:19.463Z,100772.19
2022-08-05T09:02:22.022Z,100761.69
2022-08-05T09:04:30.554Z,100764.75
2022-08-05T09:06:32.500Z,100767.13
2022-08-05T09:08:40.239Z,100768.69
2022-08-05T09:10:42.338Z,100767.47
2022-08-05T09:12:51.048Z,100783.47
2022-08-05T09:15:04.069Z,100776.50
2022-08-05T09:17:09.755Z,100792.63
2022-08-05T09:19:36.596Z,100798.06
2022-08-05T09:22:23.299Z,100797.41
2022-08-05T09:24:13.898Z,100799.78
2022-08-05T09:26:20.802Z,100794.63
2022-08-05T09:28:32.234Z,100798.16
2022-08-05T09:30:34.711Z,100792.16
2022-08-05T09:32:42.987Z,100803.06
2022-08-05T09:34:49.733Z,100818.38
2022-08-05T09:36:56.380Z,100817.94
2022-08-05T09:39:03.350Z,100815.19
2022-08-05T09:41:18.316Z,100804.28
2022-08-05T09:43:41.159Z,100807.00
2022-08-05T09:46:06.379Z,100804.09
2022-08-05T09:48:24.303Z,100799.19
2022-08-05T09:50:38.784Z,100788.59
2022-08-05T09:52:45.903Z,100762.94
2022-08-05T09:54:56.397Z,100755.47
2022-08-05T09:57:01.253Z,100757.44
2022-08-05T09:59:07.682Z,100754.72
2022-08-05T10:01:14.667Z,100749.31
2022-08-05T10:03:17.322Z,100743.38
2022-08-05T10:05:24.374Z,100746.84
2022-08-05T10:08:36.587Z,100746.84
2022-08-05T10:10:15.010Z,100732.94
2022-08-05T10:12:18.566Z,100708.47
2022-08-05T10:14:34.457Z,100719.09
2022-08-05T10:16:37.871Z,100725.94
2022-08-05T10:18:50.743Z,100736.00
2022-08-05T10:20:54.835Z,100741.44
2022-08-05T10:22:56.804Z,100766.75
2022-08-05T10:25:00.302Z,100753.09
2022-08-05T10:27:03.187Z,100750.31
2022-08-05T10:29:04.832Z,100774.53
2022-08-05T10:32:49.511Z,100801.78
2022-08-05T10:33:35.127Z,100820.88
2022-08-05T10:35:40.598Z,100832.63
2022-08-05T10:37:47.481Z,100823.56
2022-08-05T10:40:03.610Z,100831.41
2022-08-05T10:42:32.582Z,100820.22
2022-08-05T10:44:37.696Z,100791.97
2022-08-05T10:46:45.850Z,100793.50
2022-08-05T10:48:56.501Z,100798.56
2022-08-05T10:51:01.525Z,100802.47
2022-08-05T10:53:05.017Z,100794.16
2022-08-05T10:55:09.318Z,100798.72
2022-08-05T10:57:24.991Z,100802.09
2022-08-05T11:00:02.400Z,100799.38
2022-08-05T11:02:14.811Z,100788.34
2022-08-05T11:04:30.967Z,100779.31
2022-08-05T11:06:34.541Z,100757.25
2022-08-05T11:08:38.027Z,100759.63
2022-08-05T11:10:50.376Z,100764.06
2022-08-05T11:13:11.319Z,100757.25
2022-08-05T11:15:21.300Z,100764.66
2022-08-05T11:17:59.486Z,100759.97
2022-08-05T11:20:16.760Z,100786.81
2022-08-05T11:22:42.355Z,100802.69
2022-08-05T11:25:01.623Z,100798.91
2022-08-05T11:27:45.712Z,100812.09
2022-08-05T11:29:59.451Z,100813.19
2022-08-05T11:32:25.140Z,100807.22
2022-08-05T11:34:39.762Z,100799.13
2022-08-05T11:36:46.931Z,100803.22
2022-08-05T11:38:55.073Z,100816.91
2022-08-05T11:41:36.820Z,100808.88
2022-08-05T11:44:04.479Z,100811.53
2022-08-05T11:46:16.182Z,100811.22
2022-08-05T11:48:09.708Z,100816.72
2022-08-05T11:50:14.665Z,100808.25
2022-08-05T11:52:23.427Z,100803.63
2022-08-05T11:54:33.131Z,100797.28
2022-08-05T11:56:50.428Z,100798.16
2022-08-05T11:58:53.694Z,100799.66
2022-08-05T12:01:01.480Z,100804.72
2022-08-05T12:03:28.406Z,100802.78
2022-08-05T12:05:39.540Z,100804.56
2022-08-05T12:08:04.370Z,100800.81
2022-08-05T12:10:09.085Z,100799.91
2022-08-05T12:12:13.018Z,100811.13
2022-08-05T12:14:14.697Z,100800.47
2022-08-05T12:16:19.496Z,100807.66
2022-08-05T12:18:32.623Z,100803.81
2022-08-05T12:20:35.880Z,100807.88
2022-08-05T12:22:37.828Z,100810.88
2022-08-05T12:24:43.633Z,100809.88
2022-08-05T12:26:53.454Z,100806.94
2022-08-05T12:28:54.961Z,100805.19
2022-08-05T12:30:56.861Z,100804.47
2022-08-05T12:32:58.481Z,100793.19
2022-08-05T12:35:09.490Z,100795.13
2022-08-05T12:37:21.423Z,100779.19
2022-08-05T12:39:34.255Z,100787.16
2022-08-05T12:41:43.998Z,100799.66
2022-08-05T12:43:50.347Z,100799.72
2022-08-05T12:45:53.023Z,100794.88
2022-08-05T12:48:01.463Z,100790.91
2022-08-05T12:50:17.567Z,100790.31
2022-08-05T12:52:28.337Z,100802.28
2022-08-05T12:54:32.188Z,100795.88
2022-08-05T12:56:34.918Z,100798.28
2022-08-05T12:58:53.664Z,100803.78
2022-08-05T13:02:00.555Z,100794.19
2022-08-05T13:03:18.906Z,100797.72
2022-08-05T13:05:21.162Z,100800.31
2022-08-05T13:07:57.772Z,100797.63
2022-08-05T13:09:51.150Z,100791.91
2022-08-05T13:12:03.661Z,100791.81
2022-08-05T13:14:19.471Z,100791.44
2022-08-05T13:16:25.071Z,100803.69
2022-08-05T13:18:37.740Z,100807.94
2022-08-05T13:20:40.412Z,100806.03
2022-08-05T13:22:47.395Z,100803.00
2022-08-05T13:24:57.404Z,100789.34
2022-08-05T13:26:59.461Z,100796.56
2022-08-05T13:29:03.240Z,100801.88
2022-08-05T13:31:14.116Z,100794.25
2022-08-05T13:34:21.465Z,100793.19
2022-08-05T13:35:47.543Z,100794.44
2022-08-05T13:37:55.766Z,100800.81
2022-08-05T13:40:15.867Z,100805.44
2022-08-05T13:42:18.468Z,100795.66
2022-08-05T13:44:20.008Z,100797.78
2022-08-05T13:46:51.006Z,100794.63
2022-08-05T13:48:57.473Z,100797.72
2022-08-05T13:51:05.946Z,100795.94
2022-08-05T13:53:15.613Z,100796.50
2022-08-05T13:55:40.753Z,100799.28
2022-08-05T13:57:49.033Z,100803.47
2022-08-05T13:59:57.482Z,100802.19
2022-08-05T14:02:04.921Z,100806.34
2022-08-05T14:04:08.851Z,100805.81
2022-08-05T14:06:26.315Z,100805.81
2022-08-05T14:08:32.630Z,100800.34
2022-08-05T14:10:34.604Z,100795.75
2022-08-05T14:12:36.273Z,100799.50
2022-08-05T14:14:37.799Z,100799.47
2022-08-05T14:16:39.323Z,100799.03
2022-08-05T14:18:44.055Z,100802.22
2022-08-05T14:20:47.280Z,100801.97
2022-08-05T14:22:50.065Z,100810.22
2022-08-05T14:24:53.352Z,100813.03
2022-08-05T14:27:15.601Z,100805.69
2022-08-05T14:29:17.154Z,100814.97
2022-08-05T14:31:54.494Z,100816.28
2022-08-05T14:34:00.186Z,100828.78
2022-08-05T14:36:02.149Z,100830.16
2022-08-05T14:38:03.705Z,100830.88
2022-08-05T14:40:08.756Z,100831.72
2022-08-05T14:42:21.256Z,100829.63
2022-08-05T14:44:30.912Z,100835.50
2022-08-05T14:46:35.082Z,100825.22
2022-08-05T14:48:36.972Z,100836.41
2022-08-05T14:50:40.890Z,100837.25
2022-08-05T14:52:52.650Z,100842.81
2022-08-05T14:54:55.291Z,100835.69
2022-08-05T14:56:59.241Z,100838.38
2022-08-05T14:59:01.535Z,100833.94
2022-08-05T15:01:04.862Z,100831.47
2022-08-05T15:03:17.865Z,100829.97
2022-08-05T15:05:19.920Z,100818.41
2022-08-05T15:08:05.583Z,100817.88
2022-08-05T15:09:51.841Z,100825.22
2022-08-05T15:11:55.869Z,100831.25
2022-08-05T15:14:00.785Z,100828.22
2022-08-05T15:16:02.783Z,100826.44
2022-08-05T15:18:05.917Z,100816.81
2022-08-05T15:20:15.689Z,100837.94
2022-08-05T15:22:20.061Z,100829.97
2022-08-05T15:24:23.037Z,100843.19
2022-08-05T15:26:31.914Z,100835.06
2022-08-05T15:28:34.097Z,100830.47
2022-08-05T15:30:37.009Z,100840.03
2022-08-05T15:32:39.900Z,100843.91
2022-08-05T15:34:42.079Z,100840.88
2022-08-05T15:36:43.799Z,100843.81
2022-08-05T15:38:46.613Z,100842.66
2022-08-05T15:41:20.768Z,100849.81
2022-08-05T15:43:19.852Z,100851.25
2022-08-05T15:45:23.126Z,100856.06
2022-08-05T15:47:42.822Z,100865.13
2022-08-05T15:49:56.714Z,100864.94
2022-08-05T15:52:13.348Z,100868.38
2022-08-05T15:54:18.038Z,100874.84
2022-08-05T15:56:19.650Z,100880.34
2022-08-05T15:58:23.300Z,100881.03
2022-08-05T16:00:26.304Z,100868.09
2022-08-05T16:02:46.202Z,100873.53
2022-08-05T16:04:48.668Z,100878.50
2022-08-05T16:06:50.215Z,100891.66
2022-08-05T16:08:53.776Z,100904.25
2022-08-05T16:10:57.208Z,100895.94
2022-08-05T16:12:58.764Z,100900.69
2022-08-05T16:15:01.002Z,100904.94
2022-08-05T16:17:02.728Z,100916.88
2022-08-05T16:19:07.430Z,100917.56
2022-08-05T16:21:11.405Z,100913.97
2022-08-05T16:23:15.290Z,100907.69
2022-08-05T16:25:16.991Z,100906.16
2022-08-05T16:27:18.786Z,100915.50
2022-08-05T16:29:20.608Z,100916.19
2022-08-05T16:31:22.974Z,100936.78
2022-08-05T16:33:24.887Z,100936.25
2022-08-05T16:35:32.544Z,100941.72
2022-08-05T16:38:16.225Z,100938.47
2022-08-05T16:40:04.614Z,100941.72
2022-08-05T16:42:13.689Z,100962.09
2022-08-05T16:44:18.407Z,100978.13
2022-08-05T16:46:24.527Z,100987.25
2022-08-05T16:48:33.601Z,100962.72
2022-08-05T16:50:38.542Z,100969.66
2022-08-05T16:52:40.048Z,100964.38
2022-08-05T16:54:47.784Z,100969.81
2022-08-05T16:56:52.238Z,100972.44
2022-08-05T16:58:53.955Z,100981.47
2022-08-05T17:00:56.156Z,100983.66
2022-08-05T17:02:57.767Z,100977.19
2022-08-05T17:04:59.321Z,100982.78
2022-08-05T17:07:03.195Z,100988.41
2022-08-05T17:09:12.610Z,101000.44
2022-08-05T17:11:16.826Z,101008.88
2022-08-05T17:13:21.670Z,100998.84
2022-08-05T17:15:48.708Z,101023.56
2022-08-05T17:17:54.988Z,101024.22
2022-08-05T17:19:57.099Z,101034.25
2022-08-05T17:21:58.804Z,101038.97
2022-08-05T17:24:03.181Z,101045.06
2022-08-05T17:26:07.652Z,101045.97
2022-08-05T17:28:10.124Z,101056.75
2022-08-05T17:30:19.136Z,101057.94
2022-08-05T17:32:30.262Z,101063.66
2022-08-05T17:34:35.468Z,101065.09
2022-08-05T17:36:40.579Z,101073.13
2022-08-05T17:38:42.387Z,101072.44
2022-08-05T17:40:45.889Z,101074.59
2022-08-05T17:42:51.247Z,101076.47
2022-08-05T17:44:54.952Z,101067.75
2022-08-05T17:46:56.470Z,101088.28
2022-08-05T17:48:59.043Z,101106.41
2022-08-05T17:51:00.582Z,101120.09
2022-08-05T17:53:04.891Z,101123.19
2022-08-05T17:55:07.842Z,101116.19
2022-08-05T17:57:12.376Z,101116.75
2022-08-05T17:59:14.123Z,101118.13
2022-08-05T18:01:24.303Z,101122.16
2022-08-05T18:03:57.814Z,101118.34
2022-08-05T18:05:52.685Z,101124.00
2022-08-05T18:07:55.229Z,101120.34
2022-08-05T18:10:02.045Z,101138.16
2022-08-05T18:12:13.107Z,101132.03
2022-08-05T18:14:23.937Z,101119.06
2022-08-05T18:16:25.448Z,101132.19
2022-08-05T18:18:27.034Z,101137.59
2022-08-05T18:20:29.190Z,101146.25
2022-08-05T18:22:46.165Z,101148.41
2022-08-05T18:24:55.032Z,101150.94
2022-08-05T18:26:57.565Z,101140.66
2022-08-05T18:29:01.130Z,101148.06
2022-08-05T18:31:02.648Z,101150.75
2022-08-05T18:33:04.679Z,101164.53
2022-08-05T18:35:07.522Z,101171.22
2022-08-05T18:37:32.810Z,101179.06
2022-08-05T18:40:34.344Z,101183.66
2022-08-05T18:42:03.702Z,101172.56
2022-08-05T18:44:10.567Z,101177.97
2022-08-05T18:46:14.207Z,101178.53
2022-08-05T18:48:30.155Z,101186.66
2022-08-05T18:50:44.982Z,101192.75
2022-08-05T18:52:51.250Z,101197.75
2022-08-05T18:54:54.520Z,101209.69
2022-08-05T18:56:56.090Z,101195.97
2022-08-05T18:59:01.232Z,101203.34
2022-08-05T19:01:04.380Z,101213.84
2022-08-05T19:03:06.974Z,101209.41
2022-08-05T19:06:05.951Z,101212.72
2022-08-05T19:07:45.308Z,101212.72
2022-08-05T19:09:47.999Z,101217.25
2022-08-05T19:12:00.768Z,101222.94
2022-08-05T19:14:19.990Z,101212.97
2022-08-05T19:16:30.075Z,101231.09
2022-08-05T19:18:36.807Z,101235.81
2022-08-05T19:20:46.810Z,101237.75
2022-08-05T19:22:48.464Z,101237.53
2022-08-05T19:24:55.983Z,101249.53
2022-08-05T19:26:58.351Z,101252.75
2022-08-05T19:28:59.892Z,101254.25
2022-08-05T19:31:04.975Z,101251.41
2022-08-05T19:33:16.657Z,101259.41
2022-08-05T19:35:18.693Z,101253.50
2022-08-05T19:37:29.928Z,101259.78
2022-08-05T19:39:45.986Z,101261.28
2022-08-05T19:42:07.333Z,101273.66
2022-08-05T19:44:13.579Z,101281.03
2022-08-05T19:46:16.634Z,101277.81
2022-08-05T19:48:32.718Z,101288.38
2022-08-05T19:50:35.590Z,101280.53
2022-08-05T19:52:37.252Z,101294.50
2022-08-05T19:54:39.073Z,101292.81
2022-08-05T19:56:43.399Z,101297.97
2022-08-05T19:58:54.199Z,101286.66
2022-08-05T20:00:56.067Z,101299.41
2022-08-05T20:02:57.689Z,101290.22
2022-08-05T20:05:04.681Z,101300.88
2022-08-05T20:07:13.191Z,101278.69
2022-08-05T20:09:15.077Z,101300.41
2022-08-05T20:11:19.465Z,101297.25
2022-08-05T20:13:30.349Z,101298.97
2022-08-05T20:15:52.935Z,101304.13
2022-08-05T20:18:00.710Z,101309.50
2022-08-05T20:20:09.142Z,101310.50
2022-08-05T20:22:11.143Z,101305.34
2022-08-05T20:24:13.000Z,101314.66
2022-08-05T20:26:18.024Z,101327.41
2022-08-05T20:28:20.117Z,101321.28
2022-08-05T20:30:22.039Z,101333.78
2022-08-05T20:32:28.314Z,101329.38
2022-08-05T20:34:30.301Z,101336.00
2022-08-05T20:36:33.966Z,101344.34
2022-08-05T20:38:35.756Z,101355.63
2022-08-05T20:40:37.574Z,101355.75
2022-08-05T20:42:44.817Z,101358.34
2022-08-05T20:44:46.637Z,101357.72
2022-08-05T20:46:48.639Z,101359.56
2022-08-05T20:48:51.214Z,101380.06
2022-08-05T20:50:53.263Z,101383.13
2022-08-05T20:52:56.281Z,101381.63
2022-08-05T20:55:15.810Z,101384.69
2022-08-05T20:57:42.172Z,101392.19
2022-08-05T21:00:10.258Z,101397.06
2022-08-05T21:02:02.676Z,101408.06
2022-08-05T21:04:05.416Z,101406.38
2022-08-05T21:06:28.162Z,101411.50
2022-08-05T21:08:41.950Z,101417.66
2022-08-05T21:10:49.072Z,101420.22
2022-08-05T21:13:08.952Z,101412.25
2022-08-05T21:15:12.716Z,101410.28
2022-08-05T21:17:15.236Z,101411.19
2022-08-05T21:19:17.183Z,101417.66
2022-08-05T21:21:24.333Z,101426.72
2022-08-05T21:23:26.084Z,101437.28
2022-08-05T21:25:33.885Z,101424.13
2022-08-05T21:27:38.487Z,101429.31
2022-08-05T21:29:41.149Z,101423.47
2022-08-05T21:31:42.682Z,101416.69
2022-08-05T21:33:47.774Z,101428.47
2022-08-05T21:35:58.714Z,101431.97
2022-08-05T21:38:01.089Z,101422.88
2022-08-05T21:40:04.410Z,101426.19
2022-08-05T21:42:31.160Z,101428.53
2022-08-05T21:44:31.615Z,101435.41
2022-08-05T21:46:34.654Z,101427.03
2022-08-05T21:48:36.499Z,101420.16
2022-08-05T21:50:41.424Z,101429.00
2022-08-05T21:52:58.872Z,101429.84
2022-08-05T21:55:07.389Z,101435.50
2022-08-05T21:57:30.964Z,101449.31
2022-08-05T21:59:48.171Z,101447.25
2022-08-05T22:01:54.565Z,101448.97
2022-08-05T22:03:56.273Z,101451.22
2022-08-05T22:05:57.819Z,101459.13
2022-08-05T22:08:02.154Z,101446.66
2022-08-05T22:10:04.673Z,101422.94
2022-08-05T22:12:10.778Z,101430.66
2022-08-05T22:14:33.746Z,101449.66
2022-08-05T22:16:51.147Z,101448.38
2022-08-05T22:18:54.680Z,101463.81
2022-08-05T22:21:00.652Z,101471.47
2022-08-05T22:23:16.770Z,101483.41
2022-08-05T22:25:27.296Z,101476.28
2022-08-05T22:28:08.742Z,101474.06
2022-08-05T22:29:54.131Z,101468.84
2022-08-05T22:31:59.751Z,101474.47
2022-08-05T22:34:04.912Z,101474.25
2022-08-05T22:36:07.880Z,101480.06
2022-08-05T22:38:11.749Z,101485.13
2022-08-05T22:40:16.778Z,101483.28
2022-08-05T22:42:26.016Z,101481.38
2022-08-05T22:44:29.231Z,101479.84
2022-08-05T22:46:32.232Z,101486.78
2022-08-05T22:48:34.505Z,101482.44
2022-08-05T22:50:36.901Z,101491.06
2022-08-05T22:52:47.833Z,101490.09
2022-08-05T22:54:49.369Z,101498.06
2022-08-05T22:56:50.925Z,101499.25
2022-08-05T22:58:55.292Z,101493.97
2022-08-05T23:00:57.107Z,101497.53
2022-08-05T23:03:00.209Z,101494.84
2022-08-05T23:05:06.966Z,101487.84
2022-08-05T23:07:08.577Z,101489.66
2022-08-05T23:09:26.921Z,101495.25
2022-08-05T23:11:29.657Z,101495.59
2022-08-05T23:13:32.262Z,101493.34
2022-08-05T23:15:36.431Z,101484.72
2022-08-05T23:18:01.233Z,101497.63
2022-08-05T23:20:02.483Z,101489.56
2022-08-05T23:22:04.461Z,101502.94
2022-08-05T23:24:11.087Z,101503.78
2022-08-05T23:26:13.057Z,101501.53
2022-08-05T23:28:17.396Z,101498.19
2022-08-05T23:30:18.968Z,101501.75
2022-08-05T23:32:29.015Z,101511.91
2022-08-05T23:34:30.796Z,101521.31
2022-08-05T23:36:38.797Z,101530.59
2022-08-05T23:38:45.995Z,101531.94
2022-08-05T23:40:49.765Z,101532.56
2022-08-05T23:42:53.613Z,101533.88
2022-08-05T23:44:55.449Z,101534.50
2022-08-05T23:46:56.990Z,101544.59
2022-08-05T23:49:01.051Z,101537.66
2022-08-05T23:51:03.354Z,101534.25
2022-08-05T23:53:06.310Z,101541.16
2022-08-05T23:55:24.667Z,101542.22
2022-08-05T23:57:32.536Z,101534.47
2022-08-05T23:59:37.755Z,101531.88
